Time;durP1;ratioP1;P1;durP2;ratioP2;P2;SDS_P1;SDS_P2;PMS_P1;PMS_P2;Temp;Humidity;BMP_temperature;BMP_pressure;BME280_temperature;BME280_humidity;BME280_pressure;Samples;Min_cycle;Max_cycle;Signal;HPM_P1;HPM_P2
2022/10/19 00:01:53;;;;;;;4.20;1.42;;;;;;;10.27;70.52;99385.78;4946569;28;20039;-81
2022/10/19 00:04:19;;;;;;;3.22;1.50;;;;;;;10.29;70.43;99380.56;4969999;28;20063;-81
2022/10/19 00:06:45;;;;;;;3.60;1.20;;;;;;;10.21;70.57;99358.13;4949564;28;20439;-81
2022/10/19 00:09:17;;;;;;;6.88;1.50;;;;;;;10.24;70.53;99367.63;4955610;28;20046;-80
2022/10/19 00:11:45;;;;;;;2.13;1.40;;;;;;;10.28;70.51;99376.22;4953889;28;20058;-80
2022/10/19 00:14:16;;;;;;;1.80;1.27;;;;;;;10.16;70.68;99346.94;4941201;28;20088;-79
2022/10/19 00:16:43;;;;;;;2.47;1.60;;;;;;;10.11;70.79;99335.75;4953345;28;20035;-81
2022/10/19 00:19:16;;;;;;;3.72;1.48;;;;;;;10.34;70.70;99365.75;4951837;28;20117;-81
2022/10/19 00:21:42;;;;;;;7.55;2.10;;;;;;;10.32;70.83;99370.13;4951334;28;20047;-80
2022/10/19 00:24:09;;;;;;;4.05;1.55;;;;;;;10.16;70.72;99341.75;4946732;28;20070;-82
2022/10/19 00:26:35;;;;;;;2.22;1.50;;;;;;;10.22;71.16;99332.97;4944405;28;20035;-80
2022/10/19 00:29:01;;;;;;;1.65;1.52;;;;;;;10.32;71.34;99336.31;4948788;28;20099;-79
2022/10/19 00:31:27;;;;;;;6.30;1.85;;;;;;;10.08;71.13;99294.19;4949946;28;20047;-81
2022/10/19 00:33:56;;;;;;;3.15;1.77;;;;;;;10.33;70.93;99338.03;4949103;28;20050;-81
2022/10/19 00:36:28;;;;;;;8.02;1.90;;;;;;;10.33;71.24;99335.44;4961580;28;20668;-82
2022/10/19 00:38:56;;;;;;;4.60;1.67;;;;;;;10.16;70.89;99305.34;4946314;28;20152;-81
2022/10/19 00:41:25;;;;;;;3.80;1.70;;;;;;;10.37;70.98;99326.69;4960338;28;20051;-79
2022/10/19 00:43:55;;;;;;;4.00;1.92;;;;;;;10.23;70.64;99306.97;4946781;28;20054;-80
2022/10/19 00:46:21;;;;;;;6.43;2.00;;;;;;;10.28;71.22;99316.41;4944012;28;20050;-80
2022/10/19 00:48:49;;;;;;;4.32;1.60;;;;;;;10.29;71.08;99320.75;4947858;28;20047;-80
2022/10/19 00:51:15;;;;;;;6.47;2.17;;;;;;;10.23;71.30;99304.38;4945861;28;20061;-81
2022/10/19 00:53:41;;;;;;;5.65;1.90;;;;;;;10.36;71.40;99323.25;4946288;28;20055;-79
2022/10/19 00:56:13;;;;;;;3.40;1.80;;;;;;;10.27;71.26;99305.19;4917493;28;20059;-81
2022/10/19 00:58:42;;;;;;;5.45;1.98;;;;;;;10.33;70.83;99317.22;4929437;28;20058;-82
2022/10/19 01:01:12;;;;;;;3.75;2.05;;;;;;;10.16;71.10;99297.53;4944458;28;20078;-81
2022/10/19 01:03:38;;;;;;;4.72;1.90;;;;;;;10.21;70.88;99323.47;4928271;28;20078;-81
2022/10/19 01:06:05;;;;;;;2.95;1.80;;;;;;;10.09;71.19;99314.09;4945331;28;20069;-80
2022/10/19 01:08:31;;;;;;;4.95;2.13;;;;;;;10.04;71.48;99303.78;4953092;28;20486;-80
2022/10/19 01:11:26;;;;;;;2.78;1.85;;;;;;;10.05;71.61;99296.81;4951161;28;20111;-81
2022/10/19 01:14:07;;;;;;;4.82;1.88;;;;;;;10.20;71.62;99329.53;4945256;28;20412;-78
2022/10/19 01:16:45;;;;;;;3.60;2.03;;;;;;;10.23;71.28;99317.38;4944687;28;20510;-82
2022/10/19 01:19:48;;;;;;;6.97;2.08;;;;;;;10.23;71.63;99317.38;4943054;28;20530;-80
2022/10/19 01:22:33;;;;;;;3.75;2.00;;;;;;;10.25;71.91;99317.34;4944917;28;20058;-79
2022/10/19 01:25:48;;;;;;;5.05;2.30;;;;;;;10.13;71.76;99294.13;4946668;28;20062;-79
2022/10/19 01:28:59;;;;;;;3.50;2.40;;;;;;;10.31;71.90;99317.25;4881182;28;20051;-80
2022/10/19 01:31:33;;;;;;;5.22;1.83;;;;;;;10.34;71.34;99313.75;4894200;29;20596;-80
2022/10/19 01:34:25;;;;;;;3.63;1.80;;;;;;;10.32;71.43;99315.50;4955267;28;20059;-81
2022/10/19 01:36:54;;;;;;;3.08;2.30;;;;;;;10.34;71.65;99329.34;4928672;28;20382;-84
2022/10/19 01:39:43;;;;;;;4.28;2.05;;;;;;;10.22;71.39;99310.47;4949162;28;20066;-81
2022/10/19 01:42:30;;;;;;;3.25;2.65;;;;;;;10.28;71.28;99312.09;4963958;28;20069;-82
2022/10/19 01:45:05;;;;;;;3.78;2.50;;;;;;;10.24;71.79;99308.69;4960291;28;20343;-79
2022/10/19 01:47:52;;;;;;;4.15;2.30;;;;;;;10.00;71.84;99268.31;4959238;28;20395;-81
2022/10/19 01:50:35;;;;;;;3.20;1.88;;;;;;;10.31;72.02;99299.06;4962266;28;20043;-83
2022/10/19 01:53:03;;;;;;;3.03;2.05;;;;;;;10.37;71.98;99285.09;4962063;28;20133;-83
2022/10/19 01:55:31;;;;;;;3.13;1.83;;;;;;;10.27;72.00;99254.91;4951589;28;20104;-81
2022/10/19 01:58:02;;;;;;;2.90;2.35;;;;;;;10.39;71.94;99259.94;4962348;28;20051;-82
2022/10/19 02:00:31;;;;;;;3.47;2.70;;;;;;;10.53;72.24;99257.97;4960360;28;20042;-81
2022/10/19 02:02:59;;;;;;;3.85;2.65;;;;;;;10.14;71.83;99192.72;4966178;28;20510;-79
2022/10/19 02:05:30;;;;;;;4.60;2.58;;;;;;;10.30;72.04;99234.91;4952827;28;20047;-83
2022/10/19 02:08:04;;;;;;;2.57;2.20;;;;;;;10.39;72.12;99250.38;4988062;28;20039;-80
2022/10/19 02:10:34;;;;;;;3.45;2.30;;;;;;;10.14;71.62;99223.06;4991823;28;20038;-82
2022/10/19 02:13:02;;;;;;;4.20;2.60;;;;;;;10.31;72.06;99235.75;4970357;28;20042;-83
2022/10/19 02:15:50;;;;;;;4.00;2.42;;;;;;;10.40;72.05;99243.47;4966033;28;20427;-80
2022/10/19 02:18:23;;;;;;;5.55;2.78;;;;;;;10.25;71.96;99224.59;4965669;28;20055;-79
2022/10/19 02:20:48;;;;;;;5.00;2.90;;;;;;;10.29;71.70;99220.19;4965440;28;20125;-80
2022/10/19 02:23:17;;;;;;;5.68;2.80;;;;;;;9.99;71.54;99196.41;4964801;28;20165;-83
2022/10/19 02:25:43;;;;;;;6.68;3.03;;;;;;;9.93;71.73;99210.38;4982275;28;20051;-80
2022/10/19 02:28:09;;;;;;;6.75;2.78;;;;;;;9.53;71.83;99176.34;4960320;28;20133;-81
2022/10/19 02:30:36;;;;;;;7.30;3.13;;;;;;;9.77;72.32;99219.28;4946412;28;20111;-84
2022/10/19 02:33:02;;;;;;;8.30;3.20;;;;;;;9.86;73.13;99223.50;4965607;28;20109;-80
2022/10/19 02:35:28;;;;;;;9.93;3.53;;;;;;;9.56;72.77;99163.31;4977813;28;20065;-84
2022/10/19 02:38:00;;;;;;;8.68;3.10;;;;;;;10.02;72.80;99211.13;4937885;28;20047;-82
2022/10/19 02:40:26;;;;;;;;;;;;;;;10.18;72.64;99217.78;4963799;28;20066;-80
2022/10/19 02:43:02;;;;;;;11.60;4.40;;;;;;;9.98;72.77;99176.50;4967191;28;19918;-83
2022/10/19 02:45:32;;;;;;;7.80;3.53;;;;;;;10.01;72.49;99173.00;4967866;28;20097;-81
2022/10/19 02:48:03;;;;;;;8.48;3.70;;;;;;;10.29;73.10;99214.13;4966122;28;20140;-83
2022/10/19 02:50:30;;;;;;;5.18;2.95;;;;;;;10.33;73.20;99213.19;4987715;28;20042;-79
2022/10/19 02:52:57;;;;;;;6.82;2.80;;;;;;;10.23;73.04;99197.78;4970430;28;20561;-78
2022/10/19 02:55:24;;;;;;;3.88;2.10;;;;;;;10.32;73.01;99217.56;4966394;28;20071;-79
2022/10/19 02:57:49;;;;;;;4.68;2.33;;;;;;;10.18;72.85;99183.97;4969511;28;20035;-80
2022/10/19 03:00:16;;;;;;;4.05;2.35;;;;;;;10.20;73.13;99184.81;4974941;28;20201;-80
2022/10/19 03:02:43;;;;;;;4.63;2.50;;;;;;;10.14;73.31;99164.13;4971333;28;20047;-80
2022/10/19 03:05:09;;;;;;;5.88;3.28;;;;;;;10.22;73.10;99180.44;4981291;28;20124;-80
2022/10/19 03:07:35;;;;;;;7.88;2.97;;;;;;;10.20;73.64;99168.34;4969606;28;20162;-80
2022/10/19 03:10:02;;;;;;;6.28;3.10;;;;;;;10.13;73.45;99151.16;4964891;28;20140;-81
2022/10/19 03:12:29;;;;;;;2.72;2.13;;;;;;;10.22;73.86;99166.56;4952823;28;20042;-79
2022/10/19 03:14:54;;;;;;;5.40;2.25;;;;;;;10.19;73.44;99159.69;4948849;28;20121;-81
2022/10/19 03:17:21;;;;;;;6.90;2.63;;;;;;;10.38;73.84;99195.78;4954045;28;20039;-79
2022/10/19 03:19:46;;;;;;;4.57;2.47;;;;;;;10.40;73.91;99184.47;4938224;28;20046;-80
2022/10/19 03:22:13;;;;;;;4.50;2.60;;;;;;;10.27;74.07;99158.69;4986757;28;20045;-81
2022/10/19 03:24:39;;;;;;;6.45;2.95;;;;;;;10.19;74.25;99138.03;4972556;28;20047;-79
2022/10/19 03:27:05;;;;;;;4.78;2.60;;;;;;;10.43;73.95;99173.19;4975949;28;20470;-81
2022/10/19 03:29:32;;;;;;;5.53;3.45;;;;;;;10.17;73.88;99130.25;4938083;28;20078;-79
2022/10/19 03:31:57;;;;;;;9.68;5.78;;;;;;;10.35;74.27;99165.50;4972683;28;20046;-81
2022/10/19 03:34:23;;;;;;;8.20;4.45;;;;;;;10.14;74.07;99130.31;4953341;28;20129;-83
2022/10/19 03:36:49;;;;;;;12.80;6.28;;;;;;;10.07;74.12;99113.09;4969130;28;20137;-83
2022/10/19 03:39:16;;;;;;;18.17;6.82;;;;;;;10.00;74.25;99099.38;4943729;28;20059;-83
2022/10/19 03:41:42;;;;;;;12.98;6.35;;;;;;;10.37;74.27;99168.88;4949724;28;20133;-81
2022/10/19 03:44:09;;;;;;;12.52;6.05;;;;;;;10.16;73.69;99161.47;4965923;28;20113;-83
2022/10/19 03:46:37;;;;;;;19.63;5.82;;;;;;;9.40;73.52;99083.03;4965765;28;20049;-83
2022/10/19 03:49:04;;;;;;;16.67;5.22;;;;;;;9.59;74.54;99126.91;4966214;28;20042;-83
2022/10/19 03:51:32;;;;;;;12.77;5.40;;;;;;;9.78;74.34;99143.91;4967461;28;20045;-81
2022/10/19 03:54:01;;;;;;;11.90;5.35;;;;;;;9.77;74.19;99152.59;4964849;28;20144;-82
2022/10/19 03:56:29;;;;;;;11.35;4.78;;;;;;;9.74;74.87;99151.78;4953256;28;20074;-80
2022/10/19 03:58:57;;;;;;;14.82;6.22;;;;;;;9.72;75.02;99124.97;4955881;28;20076;-83
2022/10/19 04:01:24;;;;;;;14.73;5.72;;;;;;;9.47;73.76;99134.00;4971623;28;20047;-81
2022/10/19 04:03:59;;;;;;;17.00;6.90;;;;;;;9.28;74.38;99130.81;4965816;28;20572;-82
2022/10/19 04:06:30;;;;;;;13.80;6.88;;;;;;;9.20;74.40;99135.25;4952569;28;20175;-79
2022/10/19 04:08:57;;;;;;;13.63;7.28;;;;;;;9.08;74.63;99130.22;4965135;28;20046;-80
2022/10/19 04:11:26;;;;;;;13.40;6.85;;;;;;;9.15;75.48;99119.75;4964135;28;20042;-79
2022/10/19 04:13:55;;;;;;;16.77;7.50;;;;;;;9.08;75.64;99115.50;4966891;28;20129;-80
2022/10/19 04:16:23;;;;;;;16.52;7.03;;;;;;;9.04;75.42;99117.28;4965623;28;20039;-80
2022/10/19 04:18:49;;;;;;;10.20;6.10;;;;;;;9.15;75.31;99121.50;4983661;28;20106;-80
2022/10/19 04:21:21;;;;;;;12.45;5.68;;;;;;;9.07;75.64;99118.97;4989361;28;20038;-79
2022/10/19 04:23:47;;;;;;;11.35;5.85;;;;;;;9.03;75.47;99133.75;4990575;28;20042;-80
2022/10/19 04:26:13;;;;;;;9.80;5.72;;;;;;;8.71;76.02;99082.28;4959870;28;20046;-81
2022/10/19 04:28:40;;;;;;;9.27;5.97;;;;;;;8.87;76.59;99075.16;4954068;28;20046;-80
2022/10/19 04:31:09;;;;;;;14.43;6.35;;;;;;;9.29;76.69;99124.75;4958192;28;20135;-79
2022/10/19 04:33:37;;;;;;;11.07;5.10;;;;;;;9.00;75.43;99071.50;4965353;28;20766;-78
2022/10/19 04:36:05;;;;;;;9.27;5.03;;;;;;;9.35;76.41;99108.22;4967625;28;20043;-82
2022/10/19 04:38:31;;;;;;;6.53;4.15;;;;;;;9.45;76.37;99104.59;4953597;28;20050;-80
2022/10/19 04:41:05;;;;;;;6.47;3.80;;;;;;;9.52;76.35;99109.69;4962834;28;20063;-80
2022/10/19 04:43:32;;;;;;;6.63;4.32;;;;;;;9.53;76.30;99108.81;4947138;28;20039;-82
2022/10/19 04:46:06;;;;;;;5.57;3.53;;;;;;;9.49;75.68;99105.41;4947301;28;20040;-79
2022/10/19 04:48:33;;;;;;;6.00;4.65;;;;;;;9.47;76.30;99107.16;4955034;28;20031;-81
2022/10/19 04:51:00;;;;;;;8.13;5.18;;;;;;;9.32;75.38;99101.34;4948908;28;20518;-78
2022/10/19 04:53:26;;;;;;;7.38;5.25;;;;;;;9.13;76.19;99103.31;4962057;28;20039;-80
2022/10/19 04:55:55;;;;;;;9.85;6.07;;;;;;;8.94;75.10;99086.28;4966036;28;20062;-81
2022/10/19 04:58:24;;;;;;;7.07;4.57;;;;;;;9.02;74.97;99113.84;4959886;28;20078;-80
2022/10/19 05:00:50;;;;;;;6.78;4.90;;;;;;;8.85;75.16;99108.03;4948028;28;20043;-81
2022/10/19 05:03:19;;;;;;;6.07;4.63;;;;;;;8.80;75.04;99104.63;4954692;28;21301;-81
2022/10/19 05:05:45;;;;;;;6.40;4.70;;;;;;;8.77;75.76;99104.66;4955739;28;20071;-80
2022/10/19 05:08:11;;;;;;;7.32;4.70;;;;;;;8.61;75.44;99097.09;4927968;28;20135;-81
2022/10/19 05:10:37;;;;;;;6.72;5.05;;;;;;;8.66;75.45;99112.59;4946035;28;20126;-81
2022/10/19 05:13:04;;;;;;;7.95;5.40;;;;;;;8.61;75.91;99104.88;4950163;28;20043;-82
2022/10/19 05:15:30;;;;;;;8.73;4.95;;;;;;;7.97;75.35;98999.28;4947522;28;20484;-80
2022/10/19 05:17:56;;;;;;;8.02;5.45;;;;;;;8.53;75.53;99075.56;4947248;28;20103;-82
2022/10/19 05:20:26;;;;;;;7.20;5.07;;;;;;;8.71;75.92;99096.13;4961572;28;20522;-80
2022/10/19 05:22:55;;;;;;;7.03;4.82;;;;;;;8.54;75.32;99064.31;4953264;28;20102;-81
2022/10/19 05:25:21;;;;;;;10.93;5.68;;;;;;;8.67;75.00;99090.97;4946794;28;20110;-82
2022/10/19 05:27:51;;;;;;;7.80;5.38;;;;;;;8.61;74.89;99084.13;4946088;28;20067;-82
2022/10/19 05:30:18;;;;;;;11.02;5.88;;;;;;;8.54;75.35;99083.34;4955520;28;20050;-81
2022/10/19 05:32:44;;;;;;;8.50;5.15;;;;;;;8.09;75.37;99042.31;4960155;28;20047;-84
2022/10/19 05:35:11;;;;;;;8.73;5.22;;;;;;;8.45;75.93;99080.81;4948281;28;20458;-79
2022/10/19 05:37:37;;;;;;;9.20;5.45;;;;;;;8.51;76.14;99073.00;4960513;28;20418;-79
2022/10/19 05:40:12;;;;;;;12.95;7.40;;;;;;;8.86;76.06;99086.41;4911773;28;20158;-81
2022/10/19 05:42:38;;;;;;;11.15;6.65;;;;;;;8.92;75.86;99091.53;4945860;28;20043;-81
2022/10/19 05:45:07;;;;;;;13.48;7.93;;;;;;;8.81;74.92;99080.41;4943230;28;20415;-81
2022/10/19 05:47:39;;;;;;;14.52;8.93;;;;;;;8.83;74.97;99083.84;4944837;28;20039;-82
2022/10/19 05:50:06;;;;;;;12.60;7.35;;;;;;;8.62;75.59;99067.69;4947764;28;20043;-80
2022/10/19 05:52:34;;;;;;;15.82;8.45;;;;;;;8.74;76.08;99072.69;4962299;28;20047;-81
2022/10/19 05:55:00;;;;;;;14.63;8.52;;;;;;;8.18;75.85;98981.75;4930180;28;20541;-80
2022/10/19 05:57:26;;;;;;;15.00;9.10;;;;;;;8.95;76.19;99073.28;4942749;28;20047;-81
2022/10/19 05:59:57;;;;;;;20.85;13.02;;;;;;;8.98;75.74;99049.91;4945272;28;20468;-81
2022/10/19 06:02:23;;;;;;;18.80;12.60;;;;;;;9.09;74.68;99074.84;4930033;28;20039;-82
2022/10/19 06:04:49;;;;;;;15.75;12.30;;;;;;;8.62;75.44;98986.41;4952704;28;20062;-81
2022/10/19 06:07:16;;;;;;;15.10;10.60;;;;;;;8.51;75.48;98960.63;4926743;28;20035;-82
2022/10/19 06:09:44;;;;;;;8.98;7.13;;;;;;;8.87;74.52;99036.22;4942992;28;20043;-82
2022/10/19 06:12:11;;;;;;;10.73;7.68;;;;;;;9.12;75.01;99070.47;4928331;28;20051;-82
2022/10/19 06:14:37;;;;;;;12.27;6.78;;;;;;;8.71;74.98;98994.94;4942424;28;20320;-80
2022/10/19 06:17:05;;;;;;;9.35;7.00;;;;;;;9.13;75.44;99041.03;4934289;29;20543;-82
2022/10/19 06:19:31;;;;;;;14.50;6.90;;;;;;;9.31;75.12;99055.47;4952718;28;20043;-81
2022/10/19 06:21:57;;;;;;;10.25;7.00;;;;;;;8.81;74.22;98976.63;4956046;28;20059;-82
2022/10/19 06:24:23;;;;;;;11.65;7.70;;;;;;;9.12;74.86;99039.31;4958560;29;20047;-82
2022/10/19 06:26:49;;;;;;;13.32;8.30;;;;;;;9.47;74.91;99076.88;4957536;28;20545;-85
2022/10/19 06:29:18;;;;;;;12.70;8.52;;;;;;;9.39;74.97;99031.09;4957388;28;20191;-82
2022/10/19 06:31:45;;;;;;;14.93;8.80;;;;;;;9.14;74.67;99002.97;4937314;28;20047;-82
2022/10/19 06:34:11;;;;;;;14.98;9.60;;;;;;;9.27;74.47;99014.03;4981098;28;20039;-81
2022/10/19 06:36:42;;;;;;;12.20;8.10;;;;;;;9.19;74.24;98983.84;4977522;28;20040;-82
2022/10/19 06:39:08;;;;;;;27.10;16.43;;;;;;;9.51;74.43;99051.69;4966079;28;20063;-82
2022/10/19 06:41:34;;;;;;;13.70;7.70;;;;;;;9.24;74.54;99022.69;4961616;28;20050;-82
2022/10/19 06:44:16;;;;;;;;;;;;;;;9.33;73.65;99058.03;4979085;28;20580;-82
2022/10/19 06:46:43;;;;;;;8.60;5.60;;;;;;;9.26;73.72;99049.50;4979861;28;19924;-81
2022/10/19 06:49:12;;;;;;;9.30;4.80;;;;;;;9.26;73.78;99044.31;4975652;28;20038;-82
2022/10/19 06:51:39;;;;;;;6.32;4.15;;;;;;;9.30;73.66;99056.34;4960129;28;20105;-84
2022/10/19 06:54:06;;;;;;;7.00;4.53;;;;;;;9.36;74.19;99057.16;4976238;28;20042;-84
2022/10/19 06:56:32;;;;;;;6.05;3.40;;;;;;;9.32;73.48;99051.13;4977991;28;20450;-82
2022/10/19 06:58:58;;;;;;;5.20;3.88;;;;;;;9.33;73.54;99048.53;4981130;28;20042;-83
2022/10/19 07:01:48;;;;;;;6.30;3.83;;;;;;;8.97;73.39;98977.28;4975858;28;20064;-81
2022/10/19 07:04:16;;;;;;;;;;;;;;;9.42;73.38;99037.13;4968485;28;20051;-80
2022/10/19 07:06:43;;;;;;;6.22;4.35;;;;;;;9.39;73.37;99031.97;4971735;28;19918;-80
2022/10/19 07:09:09;;;;;;;9.15;4.13;;;;;;;9.39;73.57;99031.09;4977691;28;20041;-81
2022/10/19 07:11:36;;;;;;;6.05;4.22;;;;;;;9.25;73.10;99013.19;4975452;28;20043;-82
2022/10/19 07:14:02;;;;;;;8.98;4.57;;;;;;;9.43;73.50;99023.25;4978857;28;20046;-80
2022/10/19 07:16:28;;;;;;;8.27;4.38;;;;;;;9.41;72.96;99029.34;4949591;28;20042;-82
2022/10/19 07:18:54;;;;;;;5.97;4.53;;;;;;;9.15;72.73;98986.53;4964786;28;20043;-82
2022/10/19 07:21:24;;;;;;;7.18;4.45;;;;;;;9.38;73.23;99019.88;4975065;28;20038;-81
2022/10/19 07:23:50;;;;;;;7.65;4.22;;;;;;;8.74;73.01;98921.41;4944761;28;20502;-84
2022/10/19 07:26:26;;;;;;;5.97;4.20;;;;;;;9.25;72.36;99024.41;4976322;28;20502;-84
2022/10/19 07:28:55;;;;;;;6.28;4.40;;;;;;;9.35;73.18;99043.28;4957081;28;20053;-83
2022/10/19 07:31:22;;;;;;;8.55;4.30;;;;;;;9.08;72.99;98979.69;4953145;28;20035;-82
2022/10/19 07:33:57;;;;;;;6.00;4.03;;;;;;;9.36;73.53;98997.44;4955395;28;20506;-80
2022/10/19 07:36:24;;;;;;;7.65;4.20;;;;;;;9.59;73.20;98997.91;4976539;28;20542;-82
2022/10/19 07:38:50;;;;;;;7.28;4.10;;;;;;;9.65;72.93;98982.19;4962125;28;20054;-79
2022/10/19 07:41:19;;;;;;;6.93;4.20;;;;;;;9.97;72.79;99013.66;4978887;28;20065;-81
2022/10/19 07:43:49;;;;;;;5.82;4.03;;;;;;;9.87;72.69;98976.59;4972907;28;20042;-81
2022/10/19 07:46:28;;;;;;;4.78;3.42;;;;;;;10.15;72.78;99015.03;4954726;28;20079;-82
2022/10/19 07:48:55;;;;;;;5.68;3.80;;;;;;;9.99;72.17;98998.03;4972298;28;20122;-81
2022/10/19 07:51:22;;;;;;;5.28;3.50;;;;;;;9.83;71.63;98993.09;4970279;28;20097;-82
2022/10/19 07:53:48;;;;;;;4.15;3.65;;;;;;;9.71;71.68;98972.56;4969618;28;20471;-79
2022/10/19 07:56:17;;;;;;;5.05;3.78;;;;;;;9.73;71.85;98965.59;4982431;28;20045;-80
2022/10/19 07:58:43;;;;;;;5.63;3.50;;;;;;;9.78;71.74;99018.34;4964999;28;20043;-81
2022/10/19 08:01:15;;;;;;;7.72;4.07;;;;;;;9.54;71.62;99012.69;4968781;28;20582;-81
2022/10/19 08:03:42;;;;;;;8.35;4.93;;;;;;;9.48;71.61;99010.19;4968503;28;20051;-83
2022/10/19 08:06:11;;;;;;;5.90;4.50;;;;;;;9.47;72.16;99014.56;4966552;28;20574;-81
2022/10/19 08:08:42;;;;;;;6.13;4.65;;;;;;;9.22;71.28;98971.69;4950463;28;20070;-82
2022/10/19 08:11:23;;;;;;;6.75;4.30;;;;;;;9.61;71.60;99027.28;4970770;28;20035;-81
2022/10/19 08:13:58;;;;;;;8.73;4.68;;;;;;;9.52;70.96;99027.44;4938749;28;20046;-81
2022/10/19 08:16:35;;;;;;;7.35;4.78;;;;;;;9.42;71.25;98984.31;4964809;28;20506;-81
2022/10/19 08:19:06;;;;;;;10.18;4.97;;;;;;;9.52;71.50;99024.84;4970115;28;20043;-81
2022/10/19 08:21:33;;;;;;;;;;;;;;;9.65;71.93;99023.75;4933760;28;20130;-82
2022/10/19 08:24:03;;;;;;;7.03;4.90;;;;;;;9.73;71.91;99015.81;4967306;28;20334;-82
2022/10/19 08:26:36;;;;;;;6.28;4.63;;;;;;;8.94;71.51;98863.16;4981953;28;20062;-83
2022/10/19 08:29:09;;;;;;;7.53;4.57;;;;;;;10.02;71.72;99023.97;4978241;28;20042;-81
2022/10/19 08:31:44;;;;;;;10.48;4.72;;;;;;;9.96;71.17;99019.72;4969087;28;20111;-84
2022/10/19 08:34:15;;;;;;;9.15;4.88;;;;;;;9.87;71.21;99012.13;4951446;28;20046;-82
2022/10/19 08:36:42;;;;;;;7.50;5.00;;;;;;;9.61;71.31;98982.28;4955669;28;20038;-83
2022/10/19 08:39:11;;;;;;;6.20;4.93;;;;;;;9.71;71.28;98983.81;4984564;28;20084;-83
2022/10/19 08:41:40;;;;;;;6.28;4.70;;;;;;;9.75;71.99;99008.00;4954988;28;20057;-82
2022/10/19 08:44:40;;;;;;;6.78;5.20;;;;;;;9.83;71.76;99016.50;4957188;28;20047;-83
2022/10/19 08:47:17;;;;;;;5.82;4.50;;;;;;;9.86;71.64;99013.00;4994902;28;20031;-82
2022/10/19 08:49:44;;;;;;;6.97;5.10;;;;;;;9.29;71.38;98953.38;4979783;28;20086;-80
2022/10/19 08:52:15;;;;;;;7.03;5.65;;;;;;;9.78;72.02;99024.38;4957490;28;20051;-82
2022/10/19 08:54:44;;;;;;;6.95;5.38;;;;;;;9.76;70.74;99004.53;4963647;28;20054;-79
2022/10/19 08:57:20;;;;;;;7.57;5.57;;;;;;;9.62;72.07;99002.16;4942818;28;20371;-82
2022/10/19 09:00:09;;;;;;;8.73;5.50;;;;;;;9.75;71.86;99002.81;4948839;28;20055;-81
2022/10/19 09:03:23;;;;;;;7.47;5.93;;;;;;;9.65;71.57;98999.53;4949693;28;20457;-81
2022/10/19 09:06:13;;;;;;;9.63;7.03;;;;;;;9.60;71.93;99011.72;4986289;28;20058;-81
2022/10/19 09:08:39;;;;;;;7.32;5.82;;;;;;;9.25;70.92;98969.91;4970757;28;20032;-79
2022/10/19 09:11:10;;;;;;;6.63;5.68;;;;;;;8.99;71.83;98947.81;4968514;28;20039;-81
2022/10/19 09:13:41;;;;;;;9.65;6.05;;;;;;;9.27;72.56;99007.06;4970126;28;20034;-84
2022/10/19 09:16:12;;;;;;;8.53;6.17;;;;;;;9.36;72.44;99005.22;4951206;28;20100;-83
2022/10/19 09:18:39;;;;;;;7.72;5.60;;;;;;;9.26;71.90;98979.41;4971697;28;20042;-82
2022/10/19 09:21:15;;;;;;;9.40;6.30;;;;;;;8.89;72.44;98933.28;4967161;28;20039;-82
2022/10/19 09:23:44;;;;;;;9.27;6.18;;;;;;;9.41;72.50;99008.56;4963873;28;20047;-84
2022/10/19 09:26:18;;;;;;;7.43;6.00;;;;;;;9.61;73.18;99005.66;4934367;28;20047;-84
2022/10/19 09:28:55;;;;;;;7.53;5.63;;;;;;;9.76;73.01;99007.13;4951051;28;20456;-84
2022/10/19 09:31:49;;;;;;;7.15;5.30;;;;;;;9.81;73.24;99007.91;4921909;29;20549;-83
2022/10/19 09:34:33;;;;;;;6.43;5.57;;;;;;;9.84;72.46;99006.97;4948058;28;20039;-81
2022/10/19 09:37:10;;;;;;;5.68;5.07;;;;;;;9.58;72.30;99000.50;4954186;28;20510;-83
2022/10/19 09:39:36;;;;;;;5.40;4.63;;;;;;;9.54;72.45;99004.03;4961121;28;20065;-82
2022/10/19 09:42:19;;;;;;;5.82;4.60;;;;;;;9.70;72.89;99002.03;4984644;28;20046;-82
2022/10/19 09:44:46;;;;;;;6.68;5.20;;;;;;;9.36;72.34;98938.56;4991336;28;20042;-82
2022/10/19 09:47:38;;;;;;;5.40;4.85;;;;;;;9.83;72.17;99016.50;4983254;28;20047;-82
2022/10/19 09:50:18;;;;;;;7.20;5.35;;;;;;;9.84;72.40;99014.78;4963620;28;20070;-83
2022/10/19 09:52:47;;;;;;;4.82;3.90;;;;;;;9.76;72.73;98981.13;4987134;28;20066;-83
2022/10/19 09:55:16;;;;;;;6.63;4.25;;;;;;;10.10;72.26;99003.88;4984789;28;20034;-83
2022/10/19 09:57:43;;;;;;;6.63;3.90;;;;;;;9.87;72.33;98983.53;4986723;28;20103;-80
2022/10/19 10:00:44;;;;;;;8.45;5.22;;;;;;;9.98;72.63;98980.72;4993464;28;20038;-80
2022/10/19 10:03:24;;;;;;;5.60;3.95;;;;;;;10.23;72.83;99002.75;4969076;28;20128;-82
2022/10/19 10:06:05;;;;;;;8.50;3.97;;;;;;;10.18;72.32;98978.59;4965398;28;20109;-83
2022/10/19 10:08:38;;;;;;;6.43;4.53;;;;;;;10.23;72.16;98978.47;4950084;28;21485;-81
2022/10/19 10:11:09;;;;;;;7.88;4.93;;;;;;;10.49;71.98;99013.53;4964573;28;20506;-82
2022/10/19 10:13:41;;;;;;;7.22;4.95;;;;;;;10.44;71.62;99000.63;4949440;28;20070;-80
2022/10/19 10:16:11;;;;;;;7.03;5.10;;;;;;;10.46;72.05;99013.59;4961877;28;20137;-81
2022/10/19 10:18:57;;;;;;;6.03;4.30;;;;;;;10.54;71.62;99009.94;4948753;28;20137;-81
2022/10/19 10:21:26;;;;;;;9.55;5.63;;;;;;;10.53;71.77;98995.22;4966920;28;20142;-83
2022/10/19 10:24:07;;;;;;;6.60;5.05;;;;;;;10.34;72.12;98980.88;4966715;28;20051;-81
2022/10/19 10:26:42;;;;;;;5.85;4.78;;;;;;;10.28;71.37;98981.84;4953536;28;20046;-81
2022/10/19 10:29:28;;;;;;;8.05;5.05;;;;;;;10.19;70.84;99008.91;4968307;28;20047;-80
2022/10/19 10:32:09;;;;;;;7.75;4.95;;;;;;;10.01;71.15;98991.06;4969608;28;20057;-83
2022/10/19 10:35:00;;;;;;;6.78;4.68;;;;;;;10.20;72.14;99022.75;4971279;28;20057;-82
2022/10/19 10:37:43;;;;;;;9.20;5.30;;;;;;;10.30;72.05;99026.00;5516854;23;20553;-82
2022/10/19 10:40:19;;;;;;;9.63;5.82;;;;;;;10.33;71.83;99016.44;5013856;28;20112;-81
2022/10/19 10:42:51;;;;;;;9.10;5.85;;;;;;;10.39;72.05;99028.47;5002561;28;20042;-82
2022/10/19 10:45:28;;;;;;;;;;;;;;;10.47;71.74;99026.59;5000385;28;20076;-80
2022/10/19 10:48:21;;;;;;;4.10;3.10;;;;;;;10.50;71.52;99012.66;5018182;28;19920;-80
2022/10/19 10:50:48;;;;;;;5.18;2.95;;;;;;;10.21;70.96;98988.94;4987458;28;20176;-83
2022/10/19 10:53:34;;;;;;;3.60;3.20;;;;;;;10.18;71.78;98980.31;5002067;28;20038;-81
2022/10/19 10:56:00;;;;;;;4.65;3.30;;;;;;;10.36;71.99;99005.09;4989177;28;20081;-82
2022/10/19 10:58:39;;;;;;;4.10;3.20;;;;;;;10.22;71.95;98984.56;5026046;28;20593;-82
2022/10/19 11:01:18;;;;;;;4.45;3.22;;;;;;;10.31;71.51;99004.31;5032924;28;20111;-83
2022/10/19 11:04:04;;;;;;;6.40;4.53;;;;;;;10.28;71.99;99000.06;4998354;28;20042;-80
2022/10/19 11:06:33;;;;;;;5.88;4.30;;;;;;;9.78;71.72;98907.47;5027544;28;20494;-80
2022/10/19 11:09:17;;;;;;;6.15;4.00;;;;;;;10.10;72.20;98957.94;5014225;28;20037;-82
2022/10/19 11:11:46;;;;;;;5.05;2.88;;;;;;;10.48;71.82;99020.47;5031747;28;20152;-82
2022/10/19 11:14:27;;;;;;;4.63;2.83;;;;;;;10.42;72.26;99031.00;4980741;28;20049;-83
2022/10/19 11:16:58;;;;;;;4.85;3.30;;;;;;;9.94;71.66;98954.81;5031510;28;20151;-83
2022/10/19 11:19:49;;;;;;;3.38;2.70;;;;;;;10.36;72.10;99013.78;4999674;28;20101;-81
2022/10/19 11:22:37;;;;;;;4.05;2.70;;;;;;;10.27;72.15;98994.88;5023289;28;20049;-82
2022/10/19 11:25:26;;;;;;;6.30;2.88;;;;;;;10.45;71.86;99017.94;5016123;28;20109;-81
2022/10/19 11:28:22;;;;;;;5.13;3.55;;;;;;;10.35;72.24;99019.84;5032875;28;20044;-81
2022/10/19 11:31:01;;;;;;;6.68;4.60;;;;;;;10.29;71.84;99019.09;5047016;28;20060;-80
2022/10/19 11:33:54;;;;;;;6.07;4.25;;;;;;;10.28;72.56;99013.06;5022912;28;20041;-81
2022/10/19 11:36:23;;;;;;;9.38;4.78;;;;;;;10.28;72.37;99004.38;5016850;28;20096;-81
2022/10/19 11:39:20;;;;;;;5.70;4.07;;;;;;;10.18;72.44;98998.50;4987416;28;20046;-80
2022/10/19 11:42:05;;;;;;;7.95;5.43;;;;;;;9.88;72.51;98996.50;5052433;28;20036;-83
2022/10/19 11:45:13;;;;;;;8.50;5.60;;;;;;;10.02;73.07;99010.97;5037449;28;20041;-82
2022/10/19 11:47:50;;;;;;;12.10;6.38;;;;;;;10.00;72.94;98989.34;5019208;28;20064;-82
2022/10/19 11:50:31;;;;;;;10.98;5.53;;;;;;;10.18;73.26;99007.19;5028762;28;20045;-83
2022/10/19 11:53:17;;;;;;;7.77;5.33;;;;;;;10.27;72.91;99003.53;5033650;28;20041;-80
2022/10/19 11:56:04;;;;;;;8.27;5.43;;;;;;;10.27;73.20;99013.94;5024941;28;20322;-81
2022/10/19 11:58:39;;;;;;;9.60;6.32;;;;;;;10.29;73.02;99013.91;5024397;28;20099;-84
2022/10/19 12:01:48;;;;;;;9.73;6.32;;;;;;;10.37;73.39;99006.81;5012218;28;20497;-83